createdAt,value
2023-05-11T00:00:17.975Z,16.64
2023-05-11T00:01:17.773Z,16.63
2023-05-11T00:02:17.785Z,16.62
2023-05-11T00:03:18.020Z,16.61
2023-05-11T00:04:17.140Z,16.61
2023-05-11T00:05:17.727Z,16.61
2023-05-11T00:06:17.716Z,16.61
2023-05-11T00:07:17.711Z,16.61
2023-05-11T00:08:17.675Z,16.62
2023-05-11T00:09:17.004Z,16.62
2023-05-11T00:10:17.344Z,16.62
2023-05-11T00:11:17.888Z,16.61
2023-05-11T00:12:17.651Z,16.61
2023-05-11T00:13:17.635Z,16.60
2023-05-11T00:14:16.941Z,16.61
2023-05-11T00:15:17.632Z,16.60
2023-05-11T00:16:17.659Z,16.59
2023-05-11T00:17:16.923Z,16.59
2023-05-11T00:18:17.615Z,16.58
2023-05-11T00:19:17.579Z,16.59
2023-05-11T00:20:17.212Z,16.59
2023-05-11T00:21:17.552Z,16.58
2023-05-11T00:22:17.523Z,16.58
2023-05-11T00:23:16.928Z,16.58
2023-05-11T00:24:17.528Z,16.57
2023-05-11T00:25:17.517Z,16.56
2023-05-11T00:26:16.819Z,16.57
2023-05-11T00:27:16.826Z,16.55
2023-05-11T00:28:16.802Z,16.54
2023-05-11T00:29:16.796Z,16.52
2023-05-11T00:30:17.692Z,16.50
2023-05-11T00:31:17.469Z,16.49
2023-05-11T00:32:17.417Z,16.47
2023-05-11T00:33:17.431Z,16.45
2023-05-11T00:34:17.408Z,16.44
2023-05-11T00:35:17.400Z,16.42
2023-05-11T00:36:17.374Z,16.40
2023-05-11T00:37:17.374Z,16.38
2023-05-11T00:38:16.695Z,16.38
2023-05-11T00:39:17.356Z,16.36
2023-05-11T00:40:17.578Z,16.34
2023-05-11T00:41:17.314Z,16.32
2023-05-11T00:42:17.328Z,16.30
2023-05-11T00:43:16.629Z,16.29
2023-05-11T00:44:16.643Z,16.28
2023-05-11T00:45:16.630Z,16.26
2023-05-11T00:46:17.283Z,16.26
2023-05-11T00:47:17.263Z,16.25
2023-05-11T00:48:17.256Z,16.25
2023-05-11T00:49:17.405Z,16.24
2023-05-11T00:50:17.456Z,16.23
2023-05-11T00:51:16.544Z,16.22
2023-05-11T00:52:16.547Z,16.21
2023-05-11T00:53:17.195Z,16.22
2023-05-11T00:54:16.506Z,16.19
2023-05-11T00:55:17.159Z,16.19
2023-05-11T00:56:17.164Z,16.19
2023-05-11T00:57:18.416Z,16.19
2023-05-11T00:58:17.146Z,16.19
2023-05-11T00:59:17.141Z,16.18
2023-05-11T01:00:17.362Z,16.17
2023-05-11T01:01:17.263Z,16.17
2023-05-11T01:02:17.107Z,16.17
2023-05-11T01:03:16.433Z,16.16
2023-05-11T01:04:17.066Z,16.16
2023-05-11T01:05:17.074Z,16.15
2023-05-11T01:06:17.064Z,16.13
2023-05-11T01:07:16.367Z,16.10
2023-05-11T01:08:16.397Z,16.09
2023-05-11T01:09:17.005Z,16.08
2023-05-11T01:10:16.704Z,16.07
2023-05-11T01:11:17.053Z,16.06
2023-05-11T01:12:16.316Z,16.06
2023-05-11T01:13:16.969Z,16.05
2023-05-11T01:14:16.967Z,16.04
2023-05-11T01:15:16.968Z,16.05
2023-05-11T01:16:17.012Z,16.04
2023-05-11T01:17:16.938Z,16.02
2023-05-11T01:18:17.000Z,16.01
2023-05-11T01:19:16.928Z,16.01
2023-05-11T01:20:17.340Z,16.00
2023-05-11T01:21:16.906Z,15.98
2023-05-11T01:22:16.875Z,15.97
2023-05-11T01:23:16.861Z,15.97
2023-05-11T01:24:16.186Z,15.96
2023-05-11T01:25:16.175Z,15.94
2023-05-11T01:26:16.843Z,15.93
2023-05-11T01:27:16.819Z,15.92
2023-05-11T01:28:16.174Z,15.91
2023-05-11T01:29:16.812Z,15.90
2023-05-11T01:30:16.233Z,15.90
2023-05-11T01:31:16.110Z,15.89
2023-05-11T01:32:16.769Z,15.90
2023-05-11T01:33:16.830Z,15.91
2023-05-11T01:34:16.752Z,15.90
2023-05-11T01:35:16.061Z,15.88
2023-05-11T01:36:16.087Z,15.88
2023-05-11T01:37:16.707Z,15.88
2023-05-11T01:38:16.741Z,15.88
2023-05-11T01:39:16.019Z,15.87
2023-05-11T01:40:17.078Z,15.86
2023-05-11T01:41:16.661Z,15.86
2023-05-11T01:42:16.671Z,15.83
2023-05-11T01:43:16.654Z,15.82
2023-05-11T01:44:16.641Z,15.81
2023-05-11T01:45:16.636Z,15.79
2023-05-11T01:46:16.633Z,15.78
2023-05-11T01:47:15.932Z,15.76
2023-05-11T01:48:16.597Z,15.75
2023-05-11T01:49:16.585Z,15.74
2023-05-11T01:50:16.843Z,15.73
2023-05-11T01:51:15.914Z,15.72
2023-05-11T01:52:15.883Z,15.72
2023-05-11T01:53:15.874Z,15.70
2023-05-11T01:54:16.533Z,15.70
2023-05-11T01:55:16.498Z,15.70
2023-05-11T01:56:16.506Z,15.70
2023-05-11T01:57:16.504Z,15.69
2023-05-11T01:58:16.483Z,15.69
2023-05-11T01:59:15.799Z,15.70
2023-05-11T02:00:16.098Z,15.69
2023-05-11T02:01:16.490Z,15.68
2023-05-11T02:02:16.496Z,15.67
2023-05-11T02:03:16.539Z,15.67
2023-05-11T02:04:16.405Z,15.67
2023-05-11T02:05:15.735Z,15.67
2023-05-11T02:06:16.395Z,15.68
2023-05-11T02:07:16.414Z,15.68
2023-05-11T02:08:15.709Z,15.68
2023-05-11T02:09:16.346Z,15.69
2023-05-11T02:10:15.759Z,15.69
2023-05-11T02:11:16.349Z,15.69
2023-05-11T02:12:16.342Z,15.69
2023-05-11T02:13:16.318Z,15.67
2023-05-11T02:14:16.287Z,15.67
2023-05-11T02:15:15.651Z,15.67
2023-05-11T02:16:15.634Z,15.67
2023-05-11T02:17:16.287Z,15.67
2023-05-11T02:18:15.626Z,15.67
2023-05-11T02:19:15.592Z,15.69
2023-05-11T02:20:16.369Z,15.69
2023-05-11T02:21:15.562Z,15.70
2023-05-11T02:22:16.218Z,15.70
2023-05-11T02:23:15.554Z,15.70
2023-05-11T02:24:16.212Z,15.69
2023-05-11T02:25:16.192Z,15.69
2023-05-11T02:26:15.513Z,15.67
2023-05-11T02:27:15.488Z,15.67
2023-05-11T02:28:16.142Z,15.66
2023-05-11T02:29:15.488Z,15.67
2023-05-11T02:30:16.262Z,15.66
2023-05-11T02:31:16.155Z,15.66
2023-05-11T02:32:16.101Z,15.66
2023-05-11T02:33:16.079Z,15.66
2023-05-11T02:34:16.093Z,15.66
2023-05-11T02:35:15.398Z,15.66
2023-05-11T02:36:16.070Z,15.67
2023-05-11T02:37:16.044Z,15.67
2023-05-11T02:38:15.375Z,15.68
2023-05-11T02:39:16.036Z,15.68
2023-05-11T02:40:16.271Z,15.68
2023-05-11T02:41:16.011Z,15.68
2023-05-11T02:42:15.982Z,15.69
2023-05-11T02:43:15.294Z,15.69
2023-05-11T02:44:15.308Z,15.69
2023-05-11T02:45:15.295Z,15.69
2023-05-11T02:46:15.948Z,15.69
2023-05-11T02:47:15.935Z,15.69
2023-05-11T02:48:15.255Z,15.68
2023-05-11T02:49:15.239Z,15.68
2023-05-11T02:50:15.226Z,15.68
2023-05-11T02:51:15.239Z,15.67
2023-05-11T02:52:15.889Z,15.67
2023-05-11T02:53:15.207Z,15.66
2023-05-11T02:54:15.867Z,15.67
2023-05-11T02:55:15.199Z,15.66
2023-05-11T02:56:15.826Z,15.66
2023-05-11T02:57:15.851Z,15.66
2023-05-11T02:58:15.260Z,15.66
2023-05-11T02:59:15.808Z,15.66
2023-05-11T03:00:15.213Z,15.65
2023-05-11T03:01:15.197Z,-143.64
2023-05-11T03:02:15.229Z,-143.64
2023-05-11T03:03:15.172Z,-143.64
2023-05-11T03:04:15.070Z,-143.64
2023-05-11T03:05:15.730Z,-143.64
2023-05-11T03:06:15.041Z,-143.64
2023-05-11T03:07:15.714Z,-143.64
2023-05-11T03:08:15.702Z,-143.64
2023-05-11T03:09:15.033Z,-143.64
2023-05-11T03:10:15.736Z,-143.64
2023-05-11T03:11:15.672Z,-143.64
2023-05-11T03:12:14.979Z,-143.64
2023-05-11T03:13:14.965Z,-143.64
2023-05-11T03:14:15.631Z,-143.64
2023-05-11T03:15:14.956Z,-143.64
2023-05-11T03:16:15.666Z,-143.64
2023-05-11T03:17:15.607Z,-143.64
2023-05-11T03:18:14.922Z,-143.64
2023-05-11T03:19:15.881Z,-143.64
2023-05-11T03:20:15.723Z,-143.64
2023-05-11T03:21:15.564Z,-143.64
2023-05-11T03:22:15.572Z,-143.64
2023-05-11T03:23:15.557Z,-143.64
2023-05-11T03:24:14.896Z,-143.64
2023-05-11T03:25:14.849Z,-143.64
2023-05-11T03:26:14.873Z,-143.64
2023-05-11T03:27:14.814Z,-143.64
2023-05-11T03:28:14.844Z,-143.64
2023-05-11T03:29:15.466Z,-143.64
2023-05-11T03:30:14.853Z,-143.64
2023-05-11T03:31:14.792Z,-143.64
2023-05-11T03:32:15.550Z,-143.64
2023-05-11T03:33:15.419Z,-143.64
2023-05-11T03:34:15.419Z,-143.64
2023-05-11T03:35:14.727Z,-143.64
2023-05-11T03:36:15.401Z,-143.64
2023-05-11T03:37:14.726Z,-143.64
2023-05-11T03:38:15.365Z,-143.64
2023-05-11T03:39:15.385Z,-143.64
2023-05-11T03:40:14.700Z,-143.64
2023-05-11T03:41:14.661Z,-143.64
2023-05-11T03:42:15.321Z,-143.64
2023-05-11T03:43:15.331Z,-143.64
2023-05-11T03:44:15.314Z,-143.64
2023-05-11T03:45:15.302Z,-143.64
2023-05-11T03:46:15.323Z,-143.64
2023-05-11T03:47:14.603Z,-143.64
2023-05-11T03:48:14.591Z,-143.64
2023-05-11T03:49:15.260Z,-143.64
2023-05-11T03:50:15.273Z,-143.64
2023-05-11T03:51:15.230Z,-143.64
2023-05-11T03:52:15.224Z,-143.64
2023-05-11T03:53:15.261Z,-143.64
2023-05-11T03:54:15.217Z,-143.64
2023-05-11T03:55:16.510Z,-143.64
2023-05-11T03:56:15.206Z,-143.64
2023-05-11T03:57:14.543Z,-143.64
2023-05-11T03:58:15.176Z,-143.64
2023-05-11T03:59:15.158Z,-143.64
2023-05-11T04:00:14.505Z,-143.64
2023-05-11T04:01:14.488Z,-143.64
2023-05-11T04:02:15.159Z,-143.64
2023-05-11T04:03:15.284Z,-143.64
2023-05-11T04:04:14.469Z,-143.64
2023-05-11T04:05:14.445Z,-143.64
2023-05-11T04:06:15.080Z,-143.64
2023-05-11T04:07:14.370Z,-143.64
2023-05-11T04:08:15.040Z,-143.64
2023-05-11T04:09:15.042Z,-143.64
2023-05-11T04:10:14.351Z,-143.64
2023-05-11T04:11:15.014Z,-143.64
2023-05-11T04:12:14.999Z,-143.64
2023-05-11T04:13:14.988Z,-143.64
2023-05-11T04:14:14.959Z,-143.64
2023-05-11T04:15:14.949Z,-143.64
2023-05-11T04:16:14.299Z,-143.64
2023-05-11T04:17:15.199Z,-143.64
2023-05-11T04:18:14.938Z,-143.64
2023-05-11T04:19:14.911Z,-143.64
2023-05-11T04:20:14.917Z,-143.64
2023-05-11T04:21:14.238Z,-143.64
2023-05-11T04:22:14.901Z,-143.64
2023-05-11T04:23:14.876Z,-143.64
2023-05-11T04:24:14.850Z,-143.64
2023-05-11T04:25:14.856Z,-143.64
2023-05-11T04:26:14.154Z,-143.64
2023-05-11T04:27:14.148Z,-143.64
2023-05-11T04:28:14.816Z,-143.64
2023-05-11T04:29:14.824Z,-143.64
2023-05-11T04:30:14.806Z,-143.64
2023-05-11T04:31:14.843Z,-143.64
2023-05-11T04:32:14.777Z,-143.64
2023-05-11T04:33:14.097Z,-143.64
2023-05-11T04:34:14.771Z,-143.64
2023-05-11T04:35:14.051Z,-143.64
2023-05-11T04:36:14.742Z,-143.64
2023-05-11T04:37:14.723Z,-143.64
2023-05-11T04:38:14.696Z,-143.64
2023-05-11T04:39:14.702Z,-143.64
2023-05-11T04:40:14.697Z,-143.64
2023-05-11T04:41:14.680Z,-143.64
2023-05-11T04:42:14.004Z,-143.64
2023-05-11T04:43:13.988Z,-143.64
2023-05-11T04:44:13.962Z,-143.64
2023-05-11T04:45:14.632Z,-143.64
2023-05-11T04:46:14.663Z,-143.64
2023-05-11T04:47:13.951Z,-143.64
2023-05-11T04:48:13.965Z,-143.64
2023-05-11T04:49:13.909Z,-143.64
2023-05-11T04:50:13.890Z,-143.64
2023-05-11T04:51:14.582Z,-143.64
2023-05-11T04:52:14.556Z,-143.64
2023-05-11T04:53:13.887Z,-143.64
2023-05-11T04:54:13.857Z,-143.64
2023-05-11T04:55:13.837Z,-143.64
2023-05-11T04:56:13.839Z,-143.64
2023-05-11T04:57:13.841Z,-143.64
2023-05-11T04:58:14.493Z,-143.64
2023-05-11T04:59:14.486Z,-143.64
2023-05-11T05:00:14.629Z,-143.64
2023-05-11T05:01:13.822Z,-143.64
2023-05-11T05:02:13.762Z,-143.64
2023-05-11T05:03:14.438Z,-143.64
2023-05-11T05:04:13.792Z,-143.64
2023-05-11T05:05:14.426Z,-143.64
2023-05-11T05:06:14.401Z,-143.64
2023-05-11T05:07:13.724Z,-143.64
2023-05-11T05:08:13.778Z,-143.64
2023-05-11T05:09:14.376Z,-143.64
2023-05-11T05:10:14.344Z,-143.64
2023-05-11T05:11:14.341Z,-143.64
2023-05-11T05:12:13.654Z,-143.64
2023-05-11T05:13:15.580Z,-143.64
2023-05-11T05:14:13.622Z,-143.64
2023-05-11T05:15:14.304Z,-143.64
2023-05-11T05:16:14.365Z,-143.64
2023-05-11T05:17:14.353Z,-143.64
2023-05-11T05:18:14.301Z,-143.64
2023-05-11T05:19:14.275Z,-143.64
2023-05-11T05:20:14.250Z,-143.64
2023-05-11T05:21:14.241Z,-143.64
2023-05-11T05:22:14.249Z,-143.64
2023-05-11T05:23:13.536Z,-143.64
2023-05-11T05:24:13.560Z,-143.64
2023-05-11T05:25:13.534Z,-143.64
2023-05-11T05:26:14.198Z,-143.64
2023-05-11T05:27:14.183Z,-143.64
2023-05-11T05:28:14.189Z,-143.64
2023-05-11T05:29:14.144Z,-143.64
2023-05-11T05:30:13.475Z,-143.64
2023-05-11T05:31:14.146Z,-143.64
2023-05-11T05:32:13.451Z,-143.64
2023-05-11T05:33:14.111Z,-143.64
2023-05-11T05:34:16.454Z,-143.64
2023-05-11T05:35:13.395Z,-143.64
2023-05-11T05:36:14.082Z,-143.64
2023-05-11T05:37:14.086Z,-143.64
2023-05-11T05:38:14.044Z,-143.64
2023-05-11T05:39:14.036Z,-143.64
2023-05-11T05:40:14.038Z,-143.64
2023-05-11T05:41:13.347Z,-143.64
2023-05-11T05:42:15.301Z,-143.64
2023-05-11T05:43:13.991Z,-143.64
2023-05-11T05:44:13.996Z,-143.64
2023-05-11T05:45:14.831Z,-143.64
2023-05-11T05:46:14.040Z,-143.64
2023-05-11T05:47:13.269Z,-143.64
2023-05-11T05:48:13.287Z,-143.64
2023-05-11T05:49:13.944Z,-143.64
2023-05-11T05:50:13.939Z,-143.64
2023-05-11T05:51:13.934Z,-143.64
2023-05-11T05:52:13.892Z,-143.64
2023-05-11T05:53:13.900Z,-143.64
2023-05-11T05:54:13.887Z,-143.64
2023-05-11T05:55:13.197Z,-143.64
2023-05-11T05:56:13.864Z,-143.64
2023-05-11T05:57:15.665Z,-143.64
2023-05-11T05:58:13.170Z,-143.64
2023-05-11T05:59:13.837Z,-143.64
2023-05-11T06:00:13.821Z,-143.64
2023-05-11T06:01:13.812Z,-143.64
2023-05-11T06:02:13.802Z,-143.64
2023-05-11T06:03:13.854Z,-143.64
2023-05-11T06:04:13.901Z,-143.64
2023-05-11T06:05:13.103Z,-143.64
2023-05-11T06:06:13.744Z,-143.64
2023-05-11T06:07:13.726Z,-143.64
2023-05-11T06:08:13.732Z,-143.64
2023-05-11T06:09:13.152Z,-143.64
2023-05-11T06:10:13.037Z,-143.64
2023-05-11T06:11:13.045Z,-143.64
2023-05-11T06:12:13.693Z,-143.64
2023-05-11T06:13:13.683Z,-143.64
2023-05-11T06:14:13.686Z,-143.64
2023-05-11T06:15:13.657Z,-143.64
2023-05-11T06:16:13.670Z,-143.64
2023-05-11T06:17:13.641Z,-143.64
2023-05-11T06:18:13.657Z,-143.64
2023-05-11T06:19:13.686Z,-143.64
2023-05-11T06:20:13.597Z,-143.64
2023-05-11T06:21:13.581Z,-143.64
2023-05-11T06:22:12.892Z,-143.64
2023-05-11T06:23:12.890Z,-143.64
2023-05-11T06:24:13.575Z,-143.64
2023-05-11T06:25:13.544Z,-143.64
2023-05-11T06:26:12.861Z,-143.64
2023-05-11T06:27:13.867Z,-143.64
2023-05-11T06:28:13.532Z,-143.64
2023-05-11T06:29:12.850Z,-143.64
2023-05-11T06:30:13.478Z,-143.64
2023-05-11T06:31:13.505Z,-143.64
2023-05-11T06:32:12.790Z,-143.64
2023-05-11T06:33:12.786Z,-143.64
2023-05-11T06:34:12.786Z,-143.64
2023-05-11T06:35:13.447Z,-143.64
2023-05-11T06:36:12.777Z,-143.64
2023-05-11T06:37:13.421Z,-143.64
2023-05-11T06:38:13.409Z,-143.64
2023-05-11T06:39:13.378Z,-143.64
2023-05-11T06:40:13.432Z,-143.64
2023-05-11T06:41:13.385Z,-143.64
2023-05-11T06:42:13.637Z,-143.64
2023-05-11T06:43:13.350Z,-143.64
2023-05-11T06:44:13.320Z,-143.64
2023-05-11T06:45:13.390Z,-143.64
2023-05-11T06:46:12.667Z,-143.64
2023-05-11T06:47:12.611Z,-143.64
2023-05-11T06:48:13.299Z,-143.64
2023-05-11T06:49:13.291Z,-143.64
2023-05-11T06:50:12.601Z,-143.64
2023-05-11T06:51:13.268Z,-143.64
2023-05-11T06:52:13.251Z,-143.64
2023-05-11T06:53:13.245Z,-143.64
2023-05-11T06:54:13.234Z,-143.64
2023-05-11T06:55:13.212Z,-143.64
2023-05-11T06:56:12.543Z,-143.64
2023-05-11T06:57:14.493Z,-143.64
2023-05-11T06:58:12.542Z,-143.64
2023-05-11T06:59:12.495Z,-143.64
2023-05-11T07:00:13.253Z,-143.64
2023-05-11T07:01:12.507Z,-143.64
2023-05-11T07:02:13.126Z,-143.64
2023-05-11T07:03:13.284Z,-143.64
2023-05-11T07:04:13.189Z,-143.64
2023-05-11T07:05:13.124Z,-143.64
2023-05-11T07:06:13.081Z,-143.64
2023-05-11T07:07:13.079Z,-143.64
2023-05-11T07:08:12.396Z,-143.64
2023-05-11T07:09:13.078Z,-143.64
2023-05-11T07:10:13.055Z,-143.64
2023-05-11T07:11:13.054Z,-143.64
2023-05-11T07:12:13.050Z,-143.64
2023-05-11T07:13:12.347Z,-143.64
2023-05-11T07:14:12.337Z,-143.64
2023-05-11T07:15:13.013Z,-143.64
2023-05-11T07:16:12.988Z,-143.64
2023-05-11T07:17:13.050Z,-143.64
2023-05-11T07:18:13.000Z,-143.64
2023-05-11T07:19:12.376Z,-143.64
2023-05-11T07:20:12.284Z,-143.64
2023-05-11T07:21:12.915Z,-143.64
2023-05-11T07:22:15.159Z,-143.64
2023-05-11T07:23:12.902Z,-143.64
2023-05-11T07:24:12.896Z,-143.64
2023-05-11T07:25:12.869Z,-143.64
2023-05-11T07:26:12.883Z,-143.64
2023-05-11T07:27:12.864Z,-143.64
2023-05-11T07:28:12.858Z,-143.64
2023-05-11T07:29:12.810Z,-143.64
2023-05-11T07:30:12.831Z,-143.64
2023-05-11T07:31:12.866Z,-143.64
2023-05-11T07:32:12.813Z,-143.64
2023-05-11T07:33:12.802Z,-143.64
2023-05-11T07:34:12.772Z,-143.64
2023-05-11T07:35:12.128Z,-143.64
2023-05-11T07:36:12.086Z,-143.64
2023-05-11T07:37:12.767Z,-143.64
2023-05-11T07:38:12.764Z,-143.64
2023-05-11T07:39:12.719Z,-143.64
2023-05-11T07:40:12.740Z,-143.64
2023-05-11T07:41:12.990Z,-143.64
2023-05-11T07:42:12.018Z,-143.64
2023-05-11T07:43:12.021Z,-143.64
2023-05-11T07:44:12.662Z,-143.64
2023-05-11T07:45:12.702Z,-143.64
2023-05-11T07:46:12.709Z,-143.64
2023-05-11T07:47:12.648Z,-143.64
2023-05-11T07:48:12.013Z,-143.64
2023-05-11T07:49:17.343Z,-143.64
2023-05-11T07:50:13.638Z,-143.64
2023-05-11T07:51:12.610Z,-143.64
2023-05-11T07:52:12.655Z,-143.64
2023-05-11T07:53:12.585Z,-143.64
2023-05-11T07:54:11.950Z,-143.64
2023-05-11T07:55:12.841Z,-143.64
2023-05-11T07:56:12.544Z,-143.64
2023-05-11T07:57:12.826Z,-143.64
2023-05-11T07:58:12.528Z,-143.64
2023-05-11T07:59:12.578Z,-143.64
2023-05-11T08:00:12.574Z,-143.64
2023-05-11T08:01:12.533Z,-143.64
2023-05-11T08:02:13.461Z,-143.64
2023-05-11T08:03:12.502Z,-143.64
2023-05-11T08:04:12.739Z,-143.64
2023-05-11T08:05:12.475Z,-143.64
2023-05-11T08:06:12.461Z,-143.64
2023-05-11T08:07:12.708Z,-143.64
2023-05-11T08:08:12.420Z,-143.64
2023-05-11T08:09:12.405Z,-143.64
2023-05-11T08:10:13.666Z,-143.64
2023-05-11T08:11:12.684Z,-143.64
2023-05-11T08:12:11.714Z,-143.64
2023-05-11T08:13:11.703Z,-143.64
2023-05-11T08:14:12.348Z,-143.64
2023-05-11T08:15:12.349Z,-143.64
2023-05-11T08:16:12.444Z,-143.64
2023-05-11T08:17:12.319Z,-143.64
2023-05-11T08:18:12.382Z,-143.64
2023-05-11T08:19:11.677Z,-143.64
2023-05-11T08:20:12.283Z,-143.64
2023-05-11T08:21:12.254Z,-143.64
2023-05-11T08:22:12.266Z,-143.64
2023-05-11T08:23:11.583Z,-143.64
2023-05-11T08:24:13.507Z,-143.64
2023-05-11T08:25:12.236Z,-143.64
2023-05-11T08:26:12.213Z,-143.64
2023-05-11T08:27:12.222Z,-143.64
2023-05-11T08:28:11.524Z,-143.64
2023-05-11T08:29:11.517Z,-143.64
2023-05-11T08:30:12.135Z,-143.64
2023-05-11T08:31:12.506Z,-143.64
2023-05-11T08:32:12.235Z,-143.64
2023-05-11T08:33:33.788Z,-143.64
2023-05-11T08:34:19.050Z,-143.64
2023-05-11T08:35:13.157Z,-143.64
2023-05-11T08:36:12.382Z,-143.64
2023-05-11T08:37:12.383Z,-143.64
2023-05-11T08:38:12.363Z,-143.64
2023-05-11T08:39:12.359Z,-143.64
2023-05-11T08:40:14.480Z,-143.64
2023-05-11T08:41:12.329Z,-143.64
2023-05-11T08:42:12.049Z,-143.64
2023-05-11T08:43:11.369Z,-143.64
2023-05-11T08:44:12.336Z,-143.64
2023-05-11T08:45:12.000Z,-143.64
2023-05-11T08:46:12.299Z,-143.64
2023-05-11T08:47:22.614Z,-143.64
2023-05-11T08:48:12.324Z,-143.64
2023-05-11T08:49:11.955Z,-143.64
2023-05-11T08:50:11.959Z,-143.64
2023-05-11T08:51:11.271Z,-143.64
2023-05-11T08:52:11.942Z,-143.64
2023-05-11T08:53:11.921Z,-143.64
2023-05-11T08:54:12.208Z,-143.64
2023-05-11T08:55:11.909Z,-143.64
2023-05-11T08:56:11.903Z,-143.64
2023-05-11T08:57:11.886Z,-143.64
2023-05-11T08:58:11.216Z,-143.64
2023-05-11T08:59:11.193Z,-143.64
2023-05-11T09:00:11.905Z,-143.64
2023-05-11T09:01:11.875Z,-143.64
2023-05-11T09:02:11.837Z,-143.64
2023-05-11T09:03:11.843Z,-143.64
2023-05-11T09:04:11.130Z,-143.64
2023-05-11T09:05:11.829Z,-143.64
2023-05-11T09:06:11.794Z,-143.64
2023-05-11T09:07:11.757Z,-143.64
2023-05-11T09:08:11.748Z,-143.64
2023-05-11T09:09:11.099Z,-143.64
2023-05-11T09:10:13.696Z,-143.64
2023-05-11T09:11:11.738Z,-143.64
2023-05-11T09:12:11.704Z,-143.64
2023-05-11T09:13:11.711Z,-143.64
2023-05-11T09:14:11.006Z,-143.64
2023-05-11T09:15:12.948Z,-143.64
2023-05-11T09:16:27.800Z,-143.64
2023-05-11T09:17:12.048Z,-143.64
2023-05-11T09:18:11.706Z,-143.64
2023-05-11T09:19:11.669Z,-143.64
2023-05-11T09:20:10.956Z,-143.64
2023-05-11T09:21:10.954Z,-143.64
2023-05-11T09:22:10.964Z,-143.64
2023-05-11T09:23:11.609Z,-143.64
2023-05-11T09:24:11.607Z,-143.64
2023-05-11T09:25:10.908Z,-143.64
2023-05-11T09:26:11.551Z,-143.64
2023-05-11T09:27:11.559Z,-143.64
2023-05-11T09:28:15.678Z,-143.64
2023-05-11T09:29:10.842Z,-143.64
2023-05-11T09:30:11.560Z,-143.64
2023-05-11T09:31:11.546Z,-143.64
2023-05-11T09:32:10.849Z,-143.64
2023-05-11T09:33:10.836Z,-143.64
2023-05-11T09:34:11.520Z,-143.64
2023-05-11T09:35:11.458Z,-143.64
2023-05-11T09:36:11.445Z,-143.64
2023-05-11T09:37:10.772Z,-143.64
2023-05-11T09:38:10.761Z,-143.64
2023-05-11T09:39:15.542Z,-143.64
2023-05-11T09:41:11.413Z,-143.64
2023-05-11T09:42:11.395Z,-143.64
2023-05-11T09:43:10.703Z,-143.64
2023-05-11T09:44:11.390Z,-143.64
2023-05-11T09:45:10.766Z,-143.64
2023-05-11T09:46:11.384Z,-143.64
2023-05-11T09:47:11.347Z,-143.64
2023-05-11T09:48:11.419Z,-143.64
2023-05-11T09:49:10.656Z,-143.64
2023-05-11T09:50:10.683Z,-143.64
2023-05-11T09:51:11.303Z,-143.64
2023-05-11T09:52:11.285Z,-143.64
2023-05-11T09:53:11.284Z,-143.64
2023-05-11T09:54:11.251Z,-143.64
2023-05-11T09:55:10.583Z,-143.64
2023-05-11T09:56:11.257Z,-143.64
2023-05-11T09:57:10.574Z,-143.64
2023-05-11T09:58:11.237Z,-143.64
2023-05-11T09:59:11.195Z,-143.64
2023-05-11T10:00:11.205Z,-143.64
2023-05-11T10:01:10.570Z,-143.64
2023-05-11T10:02:11.191Z,-143.64
2023-05-11T10:03:10.544Z,-143.64
2023-05-11T10:04:22.180Z,-143.64
2023-05-11T10:05:11.458Z,-143.64
2023-05-11T10:06:10.445Z,-143.64
2023-05-11T10:07:10.468Z,-143.64
2023-05-11T10:08:10.460Z,-143.64
2023-05-11T10:09:10.429Z,-143.64
2023-05-11T10:10:11.108Z,-143.64
2023-05-11T10:11:11.090Z,-143.64
2023-05-11T10:12:10.382Z,-143.64
2023-05-11T10:13:11.068Z,-143.64
2023-05-11T10:14:11.053Z,-143.64
2023-05-11T10:15:10.383Z,-143.64
2023-05-11T10:16:11.086Z,-143.64
2023-05-11T10:17:11.007Z,-143.64
2023-05-11T10:18:11.144Z,-143.64
2023-05-11T10:19:11.021Z,-143.64
2023-05-11T10:20:11.014Z,-143.64
2023-05-11T10:21:10.980Z,-143.64
2023-05-11T10:22:11.006Z,-143.64
2023-05-11T10:23:10.958Z,-143.64
2023-05-11T10:24:10.266Z,-143.64
2023-05-11T10:25:10.930Z,-143.64
2023-05-11T10:26:10.927Z,-143.64
2023-05-11T10:27:10.894Z,-143.64
2023-05-11T10:28:10.203Z,-143.64
2023-05-11T10:29:10.203Z,-143.64
2023-05-11T10:30:10.208Z,-143.64
2023-05-11T10:31:10.277Z,-143.64
2023-05-11T10:32:10.281Z,-143.64
2023-05-11T10:33:10.864Z,-143.64
2023-05-11T10:34:10.846Z,-143.64
2023-05-11T10:35:10.819Z,-143.64
2023-05-11T10:36:10.152Z,-143.64
2023-05-11T10:37:10.797Z,-143.64
2023-05-11T10:38:10.789Z,-143.64
2023-05-11T10:39:10.778Z,-143.64
2023-05-11T10:40:10.779Z,-143.64
2023-05-11T10:41:10.735Z,-143.64
2023-05-11T10:42:10.756Z,-143.64
2023-05-11T10:43:10.746Z,-143.64
2023-05-11T10:44:10.721Z,-143.64
2023-05-11T10:45:10.738Z,-143.64
2023-05-11T10:46:10.748Z,-143.64
2023-05-11T10:47:10.006Z,-143.64
2023-05-11T10:48:10.039Z,-143.64
2023-05-11T10:49:10.669Z,-143.64
2023-05-11T10:50:10.650Z,-143.64
2023-05-11T10:51:10.648Z,-143.64
2023-05-11T10:52:10.638Z,-143.64
2023-05-11T10:53:09.957Z,-143.64
2023-05-11T10:54:10.617Z,-143.64
2023-05-11T10:55:09.953Z,-143.64
2023-05-11T10:56:10.592Z,-143.64
2023-05-11T10:57:10.579Z,-143.64
2023-05-11T10:58:10.672Z,-143.64
2023-05-11T10:59:09.892Z,-143.64
2023-05-11T11:00:10.659Z,-143.64
2023-05-11T11:01:10.671Z,-143.64
2023-05-11T11:02:10.532Z,-143.64
2023-05-11T11:03:10.520Z,-143.64
2023-05-11T11:04:10.501Z,-143.64
2023-05-11T11:05:11.331Z,-143.64
2023-05-11T11:06:09.839Z,-143.64
2023-05-11T11:07:10.509Z,-143.64
2023-05-11T11:08:10.464Z,-143.64
2023-05-11T11:09:10.441Z,-143.64
2023-05-11T11:10:09.761Z,-143.64
2023-05-11T11:11:10.446Z,-143.64
2023-05-11T11:12:09.746Z,-143.64
2023-05-11T11:13:10.401Z,-143.64
2023-05-11T11:14:10.409Z,-143.64
2023-05-11T11:15:11.644Z,-143.64
2023-05-11T11:16:09.708Z,-143.64
2023-05-11T11:17:10.434Z,-143.64
2023-05-11T11:18:10.400Z,-143.64
2023-05-11T11:19:10.486Z,-143.64
2023-05-11T11:20:10.336Z,-143.64
2023-05-11T11:21:09.643Z,-143.64
2023-05-11T11:22:10.302Z,-143.64
2023-05-11T11:23:09.643Z,-143.64
2023-05-11T11:24:09.631Z,-143.64
2023-05-11T11:25:11.554Z,-143.64
2023-05-11T11:26:10.283Z,-143.64
2023-05-11T11:27:09.610Z,-143.64
2023-05-11T11:28:09.577Z,-143.64
2023-05-11T11:29:10.276Z,-143.64
2023-05-11T11:30:10.239Z,-143.64
2023-05-11T11:31:10.265Z,-143.64
2023-05-11T11:32:10.192Z,-143.64
2023-05-11T11:33:10.984Z,-143.64
2023-05-11T11:34:09.514Z,-143.64
2023-05-11T11:35:11.458Z,-143.64
2023-05-11T11:36:09.492Z,-143.64
2023-05-11T11:37:10.145Z,-143.64
2023-05-11T11:38:09.462Z,-143.64
2023-05-11T11:39:10.136Z,-143.64
2023-05-11T11:40:15.376Z,-143.64
2023-05-11T11:41:10.527Z,-143.64
2023-05-11T11:42:10.099Z,-143.64
2023-05-11T11:43:10.092Z,-143.64
2023-05-11T11:44:09.386Z,-143.64
2023-05-11T11:45:10.373Z,-143.64
2023-05-11T11:46:10.047Z,-143.64
2023-05-11T11:47:10.040Z,-143.64
2023-05-11T11:48:10.119Z,-143.64
2023-05-11T11:49:09.331Z,-143.64
2023-05-11T11:50:10.025Z,-143.64
2023-05-11T11:51:10.006Z,-143.64
2023-05-11T11:52:09.994Z,-143.64
2023-05-11T11:53:09.978Z,-143.64
2023-05-11T11:54:09.998Z,-143.64
2023-05-11T11:55:10.231Z,-143.64
2023-05-11T11:56:09.942Z,-143.64
2023-05-11T11:57:09.933Z,-143.64
2023-05-11T11:58:09.925Z,-143.64
2023-05-11T11:59:09.892Z,-143.64
2023-05-11T12:00:09.246Z,-143.64
2023-05-11T12:01:09.211Z,-143.64
2023-05-11T12:02:09.880Z,-143.64
2023-05-11T12:03:09.937Z,-143.64
2023-05-11T12:04:09.987Z,-143.64
2023-05-11T12:05:10.184Z,-143.64
2023-05-11T12:06:09.840Z,-143.64
2023-05-11T12:07:09.144Z,-143.64
2023-05-11T12:08:09.827Z,-143.64
2023-05-11T12:09:09.780Z,-143.64
2023-05-11T12:10:09.902Z,-143.64
2023-05-11T12:11:09.790Z,-143.64
2023-05-11T12:12:09.779Z,-143.64
2023-05-11T12:13:09.730Z,-143.64
2023-05-11T12:14:09.082Z,-143.64
2023-05-11T12:15:09.063Z,-143.64
2023-05-11T12:16:09.873Z,-143.64
2023-05-11T12:17:09.718Z,-143.64